SHT87M EGSH-EGPH
Flight info
| Callsign | SHT87M |
|---|---|
| Flight time | 0h 47m |
| Altitude | 32000 |
| Route | ABTOS N110 ERKIT DCT AGPED |
| Aircraft | B738/M-SDE2E3FGHIRWXY/LB1 |
Departure
| Time | 2026-05-07 19:37 |
|---|---|
| Airport | Norwich Airport (EGSH) |
Arrival
| Time | 2026-05-07 20:25 |
|---|---|
| Airport | Edinburgh Airport (EGPH) |
| Time | Latitude | Longitude | Altitude | Speed | Heading |
|---|---|---|---|---|---|
| 2026-05-07 19:22 | 52.67132 | 1.27918 | 110 ft | 0 kts | 304° |
| 2026-05-07 19:32 | 52.67145 | 1.27891 | 110 ft | 9 kts | 318° |
| 2026-05-07 19:32 | 52.67204 | 1.27934 | 110 ft | 11 kts | 45° |
| 2026-05-07 19:32 | 52.67285 | 1.28035 | 110 ft | 17 kts | 32° |
| 2026-05-07 19:32 | 52.67388 | 1.28162 | 110 ft | 13 kts | 38° |
| 2026-05-07 19:33 | 52.67396 | 1.28172 | 110 ft | 0 kts | 38° |
| 2026-05-07 19:35 | 52.67401 | 1.28178 | 110 ft | 0 kts | 36° |
| 2026-05-07 19:35 | 52.67446 | 1.28232 | 109 ft | 17 kts | 36° |
| 2026-05-07 19:35 | 52.67571 | 1.28389 | 110 ft | 21 kts | 48° |
| 2026-05-07 19:35 | 52.67597 | 1.28624 | 110 ft | 21 kts | 89° |
| 2026-05-07 19:36 | 52.67596 | 1.28869 | 110 ft | 21 kts | 91° |
| 2026-05-07 19:36 | 52.67599 | 1.29112 | 110 ft | 21 kts | 88° |
| 2026-05-07 19:36 | 52.67600 | 1.29357 | 110 ft | 20 kts | 100° |
| 2026-05-07 19:36 | 52.67563 | 1.29566 | 110 ft | 14 kts | 68° |
| 2026-05-07 19:37 | 52.67606 | 1.29530 | 110 ft | 10 kts | 268° |
| 2026-05-07 19:37 | 52.67601 | 1.29291 | 110 ft | 52 kts | 271° |
| 2026-05-07 19:37 | 52.67594 | 1.28186 | 110 ft | 137 kts | 270° |
| 2026-05-07 19:37 | 52.67610 | 1.26452 | 739 ft | 150 kts | 271° |
| 2026-05-07 19:38 | 52.67672 | 1.24761 | 1548 ft | 157 kts | 271° |
| 2026-05-07 19:38 | 52.67935 | 1.22966 | 2166 ft | 168 kts | 303° |
| 2026-05-07 19:38 | 52.68746 | 1.21587 | 2738 ft | 173 kts | 320° |
| 2026-05-07 19:38 | 52.69684 | 1.20311 | 3301 ft | 176 kts | 320° |
| 2026-05-07 19:39 | 52.70625 | 1.19008 | 3841 ft | 182 kts | 320° |
| 2026-05-07 19:39 | 52.71605 | 1.17632 | 4292 ft | 193 kts | 319° |
| 2026-05-07 19:39 | 52.72673 | 1.16137 | 4702 ft | 209 kts | 319° |
| 2026-05-07 19:39 | 52.73815 | 1.14547 | 5082 ft | 226 kts | 319° |
| 2026-05-07 19:40 | 52.75069 | 1.12801 | 5465 ft | 244 kts | 319° |
| 2026-05-07 19:40 | 52.76388 | 1.10964 | 5849 ft | 249 kts | 319° |
| 2026-05-07 19:40 | 52.77712 | 1.09115 | 6232 ft | 251 kts | 319° |
| 2026-05-07 19:40 | 52.79026 | 1.07277 | 6622 ft | 252 kts | 319° |
| 2026-05-07 19:41 | 52.80377 | 1.05388 | 7013 ft | 254 kts | 319° |
| 2026-05-07 19:41 | 52.81733 | 1.03492 | 7393 ft | 259 kts | 319° |
| 2026-05-07 19:41 | 52.83138 | 1.01523 | 7774 ft | 271 kts | 319° |
| 2026-05-07 19:41 | 52.84569 | 0.99516 | 8139 ft | 274 kts | 319° |
| 2026-05-07 19:42 | 52.86031 | 0.97464 | 8543 ft | 276 kts | 319° |
| 2026-05-07 19:42 | 52.87482 | 0.95425 | 8922 ft | 278 kts | 319° |
| 2026-05-07 19:42 | 52.88967 | 0.93340 | 9305 ft | 285 kts | 319° |
| 2026-05-07 19:42 | 52.90528 | 0.91142 | 9817 ft | 302 kts | 319° |
| 2026-05-07 19:43 | 52.92148 | 0.88859 | 10344 ft | 318 kts | 319° |
| 2026-05-07 19:43 | 52.93868 | 0.86434 | 11063 ft | 328 kts | 319° |
| 2026-05-07 19:43 | 52.95612 | 0.83975 | 11857 ft | 333 kts | 319° |
| 2026-05-07 19:43 | 52.97372 | 0.81492 | 12669 ft | 338 kts | 319° |
| 2026-05-07 19:44 | 52.99143 | 0.78988 | 13487 ft | 341 kts | 319° |
| 2026-05-07 19:44 | 53.00969 | 0.76404 | 14291 ft | 345 kts | 318° |
| 2026-05-07 19:44 | 53.02771 | 0.73848 | 15071 ft | 349 kts | 318° |
| 2026-05-07 19:44 | 53.04625 | 0.71216 | 15840 ft | 353 kts | 318° |
| 2026-05-07 19:45 | 53.06490 | 0.68565 | 16589 ft | 356 kts | 318° |
| 2026-05-07 19:45 | 53.08361 | 0.65903 | 17324 ft | 360 kts | 318° |
| 2026-05-07 19:45 | 53.10272 | 0.63179 | 18057 ft | 363 kts | 318° |
| 2026-05-07 19:45 | 53.12197 | 0.60434 | 18774 ft | 366 kts | 318° |
| 2026-05-07 19:46 | 53.14110 | 0.57702 | 19447 ft | 370 kts | 318° |
| 2026-05-07 19:46 | 53.16080 | 0.54886 | 20123 ft | 373 kts | 318° |
| 2026-05-07 19:46 | 53.18035 | 0.52086 | 20769 ft | 377 kts | 318° |
| 2026-05-07 19:46 | 53.20017 | 0.49246 | 21394 ft | 380 kts | 318° |
| 2026-05-07 19:47 | 53.22030 | 0.46357 | 22033 ft | 383 kts | 318° |
| 2026-05-07 19:47 | 53.24032 | 0.43481 | 22608 ft | 387 kts | 318° |
| 2026-05-07 19:47 | 53.26077 | 0.40484 | 23194 ft | 390 kts | 317° |
| 2026-05-07 19:47 | 53.28056 | 0.37449 | 23753 ft | 393 kts | 316° |
| 2026-05-07 19:48 | 53.30058 | 0.34301 | 24298 ft | 397 kts | 315° |
| 2026-05-07 19:48 | 53.32055 | 0.31133 | 24801 ft | 401 kts | 314° |
| 2026-05-07 19:48 | 53.34121 | 0.27848 | 24915 ft | 416 kts | 315° |
| 2026-05-07 19:48 | 53.36246 | 0.24473 | 25034 ft | 430 kts | 315° |
| 2026-05-07 19:49 | 53.38452 | 0.20976 | 25167 ft | 443 kts | 315° |
| 2026-05-07 19:49 | 53.40722 | 0.17382 | 25248 ft | 457 kts | 315° |
| 2026-05-07 19:49 | 53.43031 | 0.13728 | 25445 ft | 468 kts | 315° |
| 2026-05-07 19:49 | 53.45430 | 0.09933 | 25806 ft | 475 kts | 315° |
| 2026-05-07 19:50 | 53.47827 | 0.06138 | 26302 ft | 479 kts | 315° |
| 2026-05-07 19:50 | 53.50206 | 0.02368 | 27013 ft | 477 kts | 315° |
| 2026-05-07 19:50 | 53.52623 | -0.01464 | 27739 ft | 475 kts | 315° |
| 2026-05-07 19:50 | 53.55020 | -0.05273 | 28388 ft | 474 kts | 315° |
| 2026-05-07 19:51 | 53.57378 | -0.09028 | 29006 ft | 474 kts | 315° |
| 2026-05-07 19:51 | 53.59756 | -0.12821 | 29620 ft | 473 kts | 315° |
| 2026-05-07 19:51 | 53.62143 | -0.16613 | 30191 ft | 472 kts | 316° |
| 2026-05-07 19:51 | 53.64669 | -0.20155 | 30699 ft | 474 kts | 321° |
| 2026-05-07 19:52 | 53.67303 | -0.23346 | 31196 ft | 474 kts | 324° |
| 2026-05-07 19:52 | 53.70050 | -0.26422 | 31704 ft | 473 kts | 326° |
| 2026-05-07 19:52 | 53.72811 | -0.29420 | 32029 ft | 475 kts | 327° |
| 2026-05-07 19:52 | 53.75595 | -0.32436 | 32040 ft | 477 kts | 327° |
| 2026-05-07 19:53 | 53.81111 | -0.38490 | 32039 ft | 474 kts | 326° |
| 2026-05-07 19:53 | 53.86592 | -0.44646 | 32036 ft | 475 kts | 326° |
| 2026-05-07 19:54 | 53.92059 | -0.50906 | 32033 ft | 475 kts | 324° |
| 2026-05-07 19:54 | 53.97141 | -0.57929 | 32032 ft | 475 kts | 317° |
| 2026-05-07 19:55 | 54.02025 | -0.65524 | 32026 ft | 475 kts | 315° |
| 2026-05-07 19:55 | 54.06858 | -0.73194 | 32023 ft | 475 kts | 315° |
| 2026-05-07 19:56 | 54.11668 | -0.80861 | 32017 ft | 476 kts | 315° |
| 2026-05-07 19:56 | 54.16491 | -0.88562 | 32019 ft | 476 kts | 315° |
| 2026-05-07 19:57 | 54.21316 | -0.96284 | 32026 ft | 477 kts | 315° |
| 2026-05-07 19:57 | 54.26129 | -1.03980 | 32021 ft | 476 kts | 315° |
| 2026-05-07 19:58 | 54.30972 | -1.11686 | 32016 ft | 475 kts | 316° |
| 2026-05-07 19:58 | 54.33424 | -1.15544 | 31736 ft | 479 kts | 316° |
| 2026-05-07 19:58 | 54.35856 | -1.19352 | 31351 ft | 476 kts | 316° |
| 2026-05-07 19:59 | 54.38294 | -1.23164 | 30960 ft | 474 kts | 316° |
| 2026-05-07 19:59 | 54.40701 | -1.26936 | 30550 ft | 475 kts | 316° |
| 2026-05-07 19:59 | 54.43121 | -1.30738 | 30140 ft | 476 kts | 316° |
| 2026-05-07 19:59 | 54.45572 | -1.34602 | 29726 ft | 476 kts | 316° |
| 2026-05-07 20:00 | 54.48008 | -1.38452 | 29316 ft | 476 kts | 316° |
| 2026-05-07 20:00 | 54.50439 | -1.42304 | 28905 ft | 477 kts | 316° |
| 2026-05-07 20:00 | 54.52863 | -1.46154 | 28498 ft | 477 kts | 316° |
| 2026-05-07 20:00 | 54.55301 | -1.50035 | 28089 ft | 476 kts | 316° |
| 2026-05-07 20:01 | 54.57711 | -1.53879 | 27638 ft | 478 kts | 315° |
| 2026-05-07 20:01 | 54.60120 | -1.57729 | 27156 ft | 477 kts | 316° |
| 2026-05-07 20:01 | 54.62540 | -1.61599 | 26661 ft | 468 kts | 316° |
| 2026-05-07 20:01 | 54.64892 | -1.65366 | 26175 ft | 459 kts | 315° |
| 2026-05-07 20:02 | 54.67222 | -1.69104 | 25686 ft | 450 kts | 315° |
| 2026-05-07 20:02 | 54.69482 | -1.72738 | 25199 ft | 442 kts | 315° |
| 2026-05-07 20:02 | 54.71718 | -1.76338 | 24714 ft | 435 kts | 314° |
| 2026-05-07 20:02 | 54.73903 | -1.79864 | 24230 ft | 428 kts | 314° |
| 2026-05-07 20:03 | 54.76049 | -1.83333 | 23755 ft | 423 kts | 314° |
| 2026-05-07 20:03 | 54.78209 | -1.86834 | 23291 ft | 421 kts | 314° |
| 2026-05-07 20:03 | 54.80320 | -1.90260 | 22836 ft | 419 kts | 314° |
| 2026-05-07 20:03 | 54.82441 | -1.93708 | 22372 ft | 416 kts | 314° |
| 2026-05-07 20:04 | 54.84521 | -1.97092 | 21919 ft | 413 kts | 314° |
| 2026-05-07 20:04 | 54.86610 | -2.00497 | 21456 ft | 411 kts | 314° |
| 2026-05-07 20:04 | 54.88689 | -2.03890 | 20993 ft | 408 kts | 314° |
| 2026-05-07 20:04 | 54.90749 | -2.07256 | 20533 ft | 406 kts | 314° |
| 2026-05-07 20:05 | 54.92783 | -2.10585 | 20081 ft | 403 kts | 314° |
| 2026-05-07 20:05 | 54.94805 | -2.13897 | 19625 ft | 401 kts | 314° |
| 2026-05-07 20:05 | 54.96829 | -2.17216 | 19162 ft | 394 kts | 314° |
| 2026-05-07 20:05 | 54.98781 | -2.20420 | 18692 ft | 388 kts | 314° |
| 2026-05-07 20:06 | 55.00735 | -2.23635 | 18240 ft | 382 kts | 314° |
| 2026-05-07 20:06 | 55.02627 | -2.26753 | 17796 ft | 376 kts | 313° |
| 2026-05-07 20:06 | 55.04514 | -2.29867 | 17371 ft | 369 kts | 314° |
| 2026-05-07 20:06 | 55.06356 | -2.32912 | 16968 ft | 362 kts | 314° |
| 2026-05-07 20:07 | 55.08156 | -2.35893 | 16577 ft | 356 kts | 313° |
| 2026-05-07 20:07 | 55.09936 | -2.38844 | 16209 ft | 349 kts | 314° |
| 2026-05-07 20:07 | 55.11679 | -2.41737 | 15824 ft | 344 kts | 313° |
| 2026-05-07 20:07 | 55.13405 | -2.44605 | 15441 ft | 338 kts | 313° |
| 2026-05-07 20:08 | 55.15079 | -2.47389 | 15106 ft | 332 kts | 314° |
| 2026-05-07 20:08 | 55.16743 | -2.50158 | 14777 ft | 325 kts | 313° |
| 2026-05-07 20:08 | 55.18365 | -2.52773 | 14490 ft | 320 kts | 317° |
| 2026-05-07 20:08 | 55.20140 | -2.55068 | 14199 ft | 315 kts | 323° |
| 2026-05-07 20:09 | 55.21968 | -2.57173 | 13892 ft | 312 kts | 324° |
| 2026-05-07 20:09 | 55.23769 | -2.59189 | 13595 ft | 311 kts | 324° |
| 2026-05-07 20:09 | 55.25597 | -2.61228 | 13295 ft | 311 kts | 324° |
| 2026-05-07 20:10 | 55.29221 | -2.65288 | 12706 ft | 308 kts | 323° |
| 2026-05-07 20:10 | 55.31020 | -2.67315 | 12406 ft | 306 kts | 323° |
| 2026-05-07 20:10 | 55.32802 | -2.69327 | 12108 ft | 305 kts | 323° |
| 2026-05-07 20:10 | 55.34597 | -2.71358 | 11802 ft | 304 kts | 323° |
| 2026-05-07 20:11 | 55.36369 | -2.73365 | 11502 ft | 302 kts | 323° |
| 2026-05-07 20:11 | 55.38105 | -2.75332 | 11205 ft | 301 kts | 323° |
| 2026-05-07 20:11 | 55.39866 | -2.77331 | 10897 ft | 299 kts | 323° |
| 2026-05-07 20:11 | 55.41594 | -2.79293 | 10598 ft | 298 kts | 323° |
| 2026-05-07 20:12 | 55.43332 | -2.81269 | 10293 ft | 297 kts | 323° |
| 2026-05-07 20:12 | 55.45067 | -2.83243 | 9983 ft | 295 kts | 323° |
| 2026-05-07 20:12 | 55.46784 | -2.85116 | 9676 ft | 294 kts | 330° |
| 2026-05-07 20:12 | 55.48739 | -2.86282 | 9376 ft | 298 kts | 345° |
| 2026-05-07 20:13 | 55.50780 | -2.86911 | 9073 ft | 297 kts | 349° |
| 2026-05-07 20:13 | 55.52805 | -2.87436 | 8764 ft | 296 kts | 348° |
| 2026-05-07 20:13 | 55.54823 | -2.88007 | 8453 ft | 294 kts | 347° |
| 2026-05-07 20:13 | 55.56833 | -2.88635 | 8142 ft | 291 kts | 347° |
| 2026-05-07 20:14 | 55.58820 | -2.89423 | 7829 ft | 289 kts | 341° |
| 2026-05-07 20:14 | 55.60699 | -2.90522 | 7523 ft | 287 kts | 337° |
| 2026-05-07 20:14 | 55.62571 | -2.91738 | 7212 ft | 285 kts | 337° |
| 2026-05-07 20:14 | 55.64423 | -2.92909 | 6958 ft | 282 kts | 338° |
| 2026-05-07 20:15 | 55.66267 | -2.94015 | 6942 ft | 283 kts | 339° |
| 2026-05-07 20:15 | 55.68133 | -2.95102 | 6938 ft | 284 kts | 339° |
| 2026-05-07 20:15 | 55.70007 | -2.96176 | 6939 ft | 284 kts | 339° |
| 2026-05-07 20:15 | 55.71892 | -2.97256 | 6776 ft | 286 kts | 339° |
| 2026-05-07 20:16 | 55.73789 | -2.98342 | 6512 ft | 282 kts | 339° |
| 2026-05-07 20:16 | 55.75626 | -2.99396 | 6261 ft | 281 kts | 339° |
| 2026-05-07 20:16 | 55.77484 | -3.00467 | 6005 ft | 281 kts | 339° |
| 2026-05-07 20:16 | 55.79370 | -3.01447 | 5747 ft | 282 kts | 346° |
| 2026-05-07 20:17 | 55.81328 | -3.01749 | 5504 ft | 283 kts | 357° |
| 2026-05-07 20:17 | 55.83309 | -3.01689 | 5252 ft | 283 kts | 359° |
| 2026-05-07 20:17 | 55.85290 | -3.01600 | 4998 ft | 282 kts | 358° |
| 2026-05-07 20:17 | 55.87219 | -3.01565 | 4747 ft | 281 kts | 358° |
| 2026-05-07 20:18 | 55.89184 | -3.01582 | 4488 ft | 281 kts | 356° |
| 2026-05-07 20:18 | 55.91140 | -3.01629 | 4238 ft | 281 kts | 356° |
| 2026-05-07 20:18 | 55.93092 | -3.01687 | 3981 ft | 280 kts | 356° |
| 2026-05-07 20:18 | 55.95006 | -3.01837 | 3728 ft | 278 kts | 352° |
| 2026-05-07 20:19 | 55.96925 | -3.02199 | 3478 ft | 277 kts | 350° |
| 2026-05-07 20:19 | 55.98827 | -3.02646 | 3219 ft | 276 kts | 349° |
| 2026-05-07 20:19 | 56.00724 | -3.03109 | 3000 ft | 274 kts | 349° |
| 2026-05-07 20:19 | 56.02620 | -3.03564 | 2988 ft | 275 kts | 348° |
| 2026-05-07 20:20 | 56.04365 | -3.04602 | 2976 ft | 260 kts | 323° |
| 2026-05-07 20:20 | 56.05573 | -3.06742 | 2986 ft | 233 kts | 295° |
| 2026-05-07 20:20 | 56.06014 | -3.09360 | 2987 ft | 216 kts | 264° |
| 2026-05-07 20:20 | 56.05604 | -3.11800 | 2981 ft | 195 kts | 231° |
| 2026-05-07 20:21 | 56.04673 | -3.13481 | 2996 ft | 187 kts | 220° |
| 2026-05-07 20:21 | 56.03675 | -3.14970 | 2866 ft | 188 kts | 218° |
| 2026-05-07 20:21 | 56.02641 | -3.16333 | 2637 ft | 186 kts | 216° |
| 2026-05-07 20:21 | 56.01678 | -3.17816 | 2550 ft | 181 kts | 225° |
| 2026-05-07 20:22 | 56.00943 | -3.19588 | 2272 ft | 172 kts | 235° |
| 2026-05-07 20:22 | 56.00366 | -3.21352 | 2041 ft | 158 kts | 236° |
| 2026-05-07 20:22 | 55.99828 | -3.22970 | 1835 ft | 149 kts | 234° |
| 2026-05-07 20:22 | 55.99314 | -3.24475 | 1663 ft | 138 kts | 234° |
| 2026-05-07 20:23 | 55.98819 | -3.25939 | 1445 ft | 136 kts | 235° |
| 2026-05-07 20:23 | 55.98332 | -3.27393 | 1259 ft | 133 kts | 235° |
| 2026-05-07 20:23 | 55.97864 | -3.28775 | 1073 ft | 127 kts | 234° |
| 2026-05-07 20:23 | 55.97405 | -3.30134 | 918 ft | 128 kts | 235° |
| 2026-05-07 20:24 | 55.96926 | -3.31514 | 712 ft | 134 kts | 235° |
| 2026-05-07 20:24 | 55.96457 | -3.32918 | 555 ft | 132 kts | 237° |
| 2026-05-07 20:24 | 55.95990 | -3.34347 | 381 ft | 130 kts | 235° |
| 2026-05-07 20:24 | 55.95526 | -3.35690 | 183 ft | 123 kts | 235° |
| 2026-05-07 20:25 | 55.95112 | -3.36921 | 142 ft | 96 kts | 238° |
| 2026-05-07 20:25 | 55.94875 | -3.37626 | 142 ft | 58 kts | 238° |
| 2026-05-07 20:25 | 55.94698 | -3.38050 | 142 ft | 24 kts | 167° |
| 2026-05-07 20:25 | 55.94603 | -3.37909 | 142 ft | 14 kts | 92° |
| 2026-05-07 20:26 | 55.94642 | -3.37734 | 142 ft | 16 kts | 60° |
| 2026-05-07 20:26 | 55.94704 | -3.37552 | 142 ft | 18 kts | 59° |
| 2026-05-07 20:26 | 55.94774 | -3.37345 | 142 ft | 20 kts | 59° |
| 2026-05-07 20:26 | 55.94852 | -3.37114 | 142 ft | 22 kts | 58° |
| 2026-05-07 20:27 | 55.94936 | -3.36863 | 142 ft | 25 kts | 58° |
| 2026-05-07 20:27 | 55.95029 | -3.36581 | 142 ft | 27 kts | 59° |
| 2026-05-07 20:27 | 55.95131 | -3.36287 | 142 ft | 25 kts | 72° |
| 2026-05-07 20:27 | 55.95089 | -3.35981 | 142 ft | 26 kts | 117° |
| 2026-05-07 20:28 | 55.95023 | -3.35841 | 142 ft | 12 kts | 171° |
| 2026-05-07 20:28 | 55.94949 | -3.35869 | 142 ft | 10 kts | 220° |
| 2026-05-07 20:28 | 55.94904 | -3.35948 | 142 ft | 8 kts | 250° |
| 2026-05-07 20:28 | 55.94899 | -3.35974 | 142 ft | 3 kts | 250° |
| 2026-05-07 20:29 | 55.94895 | -3.36004 | 142 ft | 0 kts | 256° |